Time;durP1;ratioP1;P1;durP2;ratioP2;P2;SDS_P1;SDS_P2;PMS_P1;PMS_P2;Temp;Humidity;BMP_temperature;BMP_pressure;BME280_temperature;BME280_humidity;BME280_pressure;Samples;Min_cycle;Max_cycle;Signal;HPM_P1;HPM_P2
2022/08/11 00:00:58;;;;;;;13.27;4.32;;;;;;;21.48;73.97;102253.41;4935226;29;20027;-71
2022/08/11 00:03:23;;;;;;;7.25;4.40;;;;;;;21.47;73.85;102248.13;4918080;29;20036;-73
2022/08/11 00:05:55;;;;;;;10.20;4.32;;;;;;;21.42;74.04;102248.78;4933136;29;20107;-73
2022/08/11 00:08:31;;;;;;;9.88;4.88;;;;;;;21.40;73.90;102250.91;4918317;29;20035;-72
2022/08/11 00:11:00;;;;;;;5.45;4.10;;;;;;;21.40;74.02;102256.38;4931523;29;20036;-72
2022/08/11 00:13:34;;;;;;;10.63;4.78;;;;;;;21.41;73.42;102258.06;4917964;29;20031;-73
2022/08/11 00:16:01;;;;;;;8.20;4.38;;;;;;;21.38;73.64;102254.91;4920641;29;20115;-72
2022/08/11 00:18:27;;;;;;;10.60;4.90;;;;;;;21.38;73.77;102257.66;4938317;29;20028;-72
2022/08/11 00:20:57;;;;;;;9.48;4.68;;;;;;;21.32;73.58;102261.25;4905034;29;20023;-72
2022/08/11 00:23:24;;;;;;;7.10;4.90;;;;;;;21.32;73.86;102255.78;4904952;29;20640;-73
2022/08/11 00:25:53;;;;;;;8.75;4.80;;;;;;;21.27;73.73;102262.75;4937647;29;20024;-72
2022/08/11 00:28:26;;;;;;;10.52;4.47;;;;;;;21.24;74.19;102252.22;4920419;29;20032;-73
2022/08/11 00:30:52;;;;;;;11.80;4.80;;;;;;;21.21;73.96;102257.31;4936641;29;20036;-73
2022/08/11 00:33:19;;;;;;;6.38;4.15;;;;;;;21.16;73.91;102255.22;4936011;29;20480;-72
2022/08/11 00:35:45;;;;;;;5.83;4.70;;;;;;;21.18;73.94;102253.09;4914750;29;20100;-73
2022/08/11 00:38:11;;;;;;;8.20;4.45;;;;;;;21.14;73.97;102257.31;4916086;29;20032;-73
2022/08/11 00:40:58;;;;;;;6.55;4.45;;;;;;;21.07;74.08;102252.97;4890676;29;20084;-73
2022/08/11 00:43:55;;;;;;;7.57;4.68;;;;;;;21.08;73.88;102258.22;4916605;29;20036;-72
2022/08/11 00:46:23;;;;;;;;;;;;;;;21.07;73.71;102255.72;4918268;29;20040;-73
2022/08/11 00:49:10;;;;;;;8.43;4.20;;;;;;;21.04;73.63;102256.97;4917978;29;20342;-72
2022/08/11 00:51:43;;;;;;;15.57;4.82;;;;;;;20.97;73.91;102257.00;4909972;29;20139;-72
2022/08/11 00:54:21;;;;;;;6.63;4.32;;;;;;;20.92;73.45;102265.00;4899006;29;20040;-74
2022/08/11 00:57:06;;;;;;;7.50;4.80;;;;;;;20.90;73.25;102266.28;4899772;29;20400;-73
2022/08/11 00:59:38;;;;;;;9.70;4.85;;;;;;;20.92;73.04;102255.97;4906533;29;20041;-73
2022/08/11 01:02:15;;;;;;;8.30;4.60;;;;;;;20.91;72.94;102259.78;4913522;29;20099;-72
2022/08/11 01:05:02;;;;;;;10.02;4.20;;;;;;;20.85;72.98;102252.41;4913813;29;20119;-72
2022/08/11 01:07:35;;;;;;;10.55;4.18;;;;;;;20.85;72.23;102245.03;4916878;29;20076;-72
2022/08/11 01:10:25;;;;;;;5.88;4.03;;;;;;;20.87;71.89;102253.03;4916618;29;20127;-72
2022/08/11 01:13:35;;;;;;;7.78;3.80;;;;;;;20.82;71.72;102243.56;4919534;29;20043;-72
2022/08/11 01:16:05;;;;;;;7.53;4.18;;;;;;;20.82;71.37;102240.00;4908881;29;20040;-72
2022/08/11 01:18:54;;;;;;;9.10;4.50;;;;;;;20.79;71.17;102244.00;4905814;29;20361;-72
2022/08/11 01:21:22;;;;;;;9.73;4.43;;;;;;;20.76;71.12;102238.97;4916994;29;20166;-72
2022/08/11 01:24:25;;;;;;;13.30;3.95;;;;;;;20.77;70.83;102245.28;4916408;29;20512;-73
2022/08/11 01:27:16;;;;;;;6.45;3.90;;;;;;;20.73;70.59;102239.41;4931895;29;20043;-72
2022/08/11 01:30:11;;;;;;;6.05;3.92;;;;;;;20.66;70.09;102243.22;4908934;29;20036;-72
2022/08/11 01:33:03;;;;;;;7.07;4.57;;;;;;;20.64;70.00;102243.41;4915582;29;20040;-72
2022/08/11 01:36:02;;;;;;;8.65;3.95;;;;;;;20.63;69.97;102243.66;4915760;29;20075;-73
2022/08/11 01:39:04;;;;;;;8.45;4.20;;;;;;;20.58;69.89;102238.81;4914714;29;20376;-72
2022/08/11 01:44:51;;;;;;;7.80;4.13;;;;;;;20.51;69.99;102240.69;4903073;29;20055;-72
2022/08/11 01:47:51;;;;;;;6.78;4.28;;;;;;;20.48;69.90;102241.94;4915849;29;20074;-72
2022/08/11 01:50:41;;;;;;;12.40;5.22;;;;;;;20.46;69.61;102244.09;4913980;29;20427;-73
2022/08/11 01:53:26;;;;;;;7.72;4.60;;;;;;;20.41;69.85;102240.31;4909833;29;20028;-72
2022/08/11 01:55:56;;;;;;;7.35;4.10;;;;;;;20.34;69.97;102246.63;4915980;29;20044;-71
2022/08/11 01:58:29;;;;;;;12.73;4.72;;;;;;;20.32;70.01;102248.72;4915671;29;20635;-72
2022/08/11 02:01:19;;;;;;;12.05;4.65;;;;;;;20.28;69.98;102238.44;4909780;29;20033;-72
2022/08/11 02:04:08;;;;;;;11.70;4.40;;;;;;;20.23;70.27;102239.06;4916523;29;20040;-72
2022/08/11 02:06:54;;;;;;;8.15;4.25;;;;;;;20.24;70.21;102240.75;4929574;29;20077;-73
2022/08/11 02:09:29;;;;;;;7.70;4.38;;;;;;;20.26;70.03;102238.63;4913521;29;20043;-72
2022/08/11 02:11:58;;;;;;;8.93;4.80;;;;;;;20.19;70.04;102243.25;4915094;29;20080;-72
2022/08/11 02:14:28;;;;;;;8.18;4.43;;;;;;;20.16;70.23;102240.97;4913756;29;20047;-72
2022/08/11 02:16:56;;;;;;;5.88;4.28;;;;;;;20.14;70.38;102234.84;4914077;29;20042;-72
2022/08/11 02:25:36;;;;;;;10.57;4.72;;;;;;;20.03;70.62;102233.59;4913749;29;20453;-73
2022/08/11 02:28:16;;;;;;;7.35;4.63;;;;;;;19.97;70.94;102231.72;4914530;29;20036;-73
2022/08/11 02:34:21;;;;;;;10.43;5.50;;;;;;;19.87;71.29;102229.41;5012813;23;20139;-82
2022/08/11 02:37:15;;;;;;;9.15;4.78;;;;;;;19.87;71.28;102225.84;4933354;29;20172;-85
2022/08/11 02:40:09;;;;;;;12.35;5.10;;;;;;;19.85;71.31;102222.47;4955752;29;20118;-85
2022/08/11 02:42:52;;;;;;;6.35;4.75;;;;;;;19.83;71.23;102224.59;4923001;29;20039;-86
2022/08/11 02:45:45;;;;;;;8.88;5.60;;;;;;;19.78;71.76;102219.75;4941870;29;20059;-84
2022/08/11 02:51:31;;;;;;;6.90;4.80;;;;;;;19.73;71.87;102219.53;4961888;29;20410;-84
2022/08/11 02:54:02;;;;;;;9.95;5.05;;;;;;;19.71;72.13;102224.38;4949877;29;20090;-84
2022/08/11 02:56:44;;;;;;;9.52;5.00;;;;;;;19.63;71.89;102217.19;4961518;29;20026;-82
2022/08/11 02:59:55;;;;;;;9.00;4.45;;;;;;;19.61;71.85;102223.91;4936990;29;20071;-83
2022/08/11 03:02:45;;;;;;;14.98;5.50;;;;;;;19.56;72.04;102213.59;4942832;29;20110;-83
2022/08/11 03:05:10;;;;;;;8.00;5.18;;;;;;;19.61;72.08;102215.72;4966957;29;20035;-83
2022/08/11 03:07:38;;;;;;;13.52;5.20;;;;;;;19.58;72.21;102211.50;4958252;29;20035;-84
2022/08/11 03:10:23;;;;;;;6.70;4.65;;;;;;;19.53;72.28;102212.13;4967165;29;20114;-82
2022/08/11 03:19:12;;;;;;;10.63;5.25;;;;;;;19.44;72.68;102213.38;4940140;29;20053;-85
2022/08/11 03:22:01;;;;;;;11.95;6.18;;;;;;;19.39;72.75;102209.59;4964284;29;20027;-85
2022/08/11 03:24:33;;;;;;;7.63;5.20;;;;;;;19.37;72.65;102206.22;4929304;29;20172;-84
2022/08/11 03:27:09;;;;;;;6.20;4.65;;;;;;;19.39;72.72;102207.69;4922936;29;20452;-84
2022/08/11 03:30:11;;;;;;;11.77;5.80;;;;;;;19.37;72.71;102208.97;4922743;29;20054;-81
2022/08/11 03:36:22;;;;;;;10.15;5.55;;;;;;;19.33;72.46;102216.72;4920586;29;20090;-84
2022/08/11 03:39:02;;;;;;;8.10;5.15;;;;;;;19.28;72.92;102213.78;4918436;29;20414;-80
2022/08/11 03:41:59;;;;;;;8.27;5.05;;;;;;;19.24;73.08;102213.31;4935473;29;20096;-84
2022/08/11 03:44:46;;;;;;;8.63;5.22;;;;;;;19.26;72.71;102213.13;4921510;29;20123;-84
2022/08/11 03:47:12;;;;;;;;;;;;;;;19.21;73.03;102210.19;4925265;29;20103;-82
2022/08/11 03:49:52;;;;;;;7.90;4.80;;;;;;;19.20;72.72;102205.78;4933730;29;20397;-82
2022/08/11 03:52:36;;;;;;;7.43;4.50;;;;;;;19.14;73.23;102206.59;4938426;29;20418;-82
2022/08/11 03:55:09;;;;;;;8.60;5.38;;;;;;;19.11;73.01;102212.47;4905051;29;20138;-82
2022/08/11 03:58:12;;;;;;;8.25;4.88;;;;;;;19.13;72.86;102211.22;4928956;29;20056;-82
2022/08/11 04:00:48;;;;;;;7.32;4.88;;;;;;;19.09;73.14;102204.50;4946822;29;20048;-81
2022/08/11 04:03:19;;;;;;;8.05;5.15;;;;;;;19.06;73.31;102207.59;4947533;29;20398;-80
2022/08/11 04:06:12;;;;;;;8.30;5.30;;;;;;;19.10;73.13;102210.78;4925579;29;20059;-80
2022/08/11 04:09:14;;;;;;;11.48;5.13;;;;;;;19.03;73.01;102206.13;4939128;29;20059;-81
2022/08/11 04:12:02;;;;;;;10.30;5.07;;;;;;;19.03;73.02;102208.84;4925144;29;20040;-82
2022/08/11 04:18:23;;;;;;;14.82;5.70;;;;;;;18.94;73.50;102207.38;4939286;29;20116;-84
2022/08/11 04:20:52;;;;;;;8.88;5.68;;;;;;;18.91;73.66;102213.25;4929456;29;20028;-83
2022/08/11 04:23:27;;;;;;;8.80;5.22;;;;;;;18.97;73.14;102206.97;4924505;29;20095;-83
2022/08/11 04:26:10;;;;;;;12.52;5.60;;;;;;;18.96;73.37;102205.28;4922663;29;20036;-83
2022/08/11 04:29:14;;;;;;;8.35;5.57;;;;;;;18.97;73.34;102206.97;4932653;29;20451;-83
2022/08/11 04:31:46;;;;;;;8.70;5.10;;;;;;;19.00;72.83;102200.25;4923517;29;20027;-82
2022/08/11 04:34:38;;;;;;;13.27;5.78;;;;;;;18.98;73.34;102203.19;4908818;29;20048;-83
2022/08/11 04:37:33;;;;;;;7.57;5.70;;;;;;;18.89;73.59;102209.03;4904741;29;20487;-83
2022/08/11 04:40:36;;;;;;;7.13;5.50;;;;;;;18.92;73.44;102198.53;4938877;29;20047;-83
2022/08/11 04:43:23;;;;;;;17.13;5.63;;;;;;;18.94;73.49;102206.53;4921779;29;20043;-84
2022/08/11 04:45:55;;;;;;;;;;;;;;;18.86;73.77;102202.94;4922551;29;20032;-83
2022/08/11 05:02:21;;;;;;;13.70;5.80;;;;;;;19.13;72.80;102213.09;4945178;29;20068;-83
2022/08/11 05:05:32;;;;;;;10.13;5.55;;;;;;;19.21;72.28;102212.91;4942756;29;20420;-84
2022/08/11 05:08:35;;;;;;;8.88;5.72;;;;;;;19.32;71.68;102215.03;4929604;29;20076;-82
2022/08/11 05:11:20;;;;;;;7.32;4.63;;;;;;;19.33;71.76;102208.53;4943335;29;20034;-81
2022/08/11 05:37:04;;;;;;;7.80;5.38;;;;;;;20.02;68.03;102215.53;4931943;29;20066;-81
2022/08/11 05:56:19;;;;;;;8.30;5.70;;;;;;;20.64;64.70;102218.78;4921142;29;20039;-83
2022/08/11 05:58:52;;;;;;;10.27;5.13;;;;;;;20.97;63.70;102226.06;4921822;29;20028;-82
2022/08/11 06:01:30;;;;;;;7.45;5.32;;;;;;;21.60;62.31;102217.06;4926507;29;20054;-83
2022/08/11 06:04:13;;;;;;;10.57;5.10;;;;;;;22.34;58.92;102207.16;4907560;29;20024;-81
2022/08/11 06:06:50;;;;;;;6.10;4.05;;;;;;;23.67;55.93;102216.38;4931377;29;20218;-83
2022/08/11 06:09:20;;;;;;;7.18;4.82;;;;;;;24.79;51.99;102211.84;4910343;29;20103;-83
2022/08/11 06:11:46;;;;;;;9.95;5.00;;;;;;;25.31;50.06;102209.03;4926627;29;20050;-85
2022/08/11 06:14:12;;;;;;;7.90;4.00;;;;;;;26.19;47.64;102217.66;4923857;29;20024;-81
2022/08/11 06:16:42;;;;;;;12.83;4.87;;;;;;;26.93;45.56;102222.78;4923516;29;20031;-83
2022/08/11 06:19:08;;;;;;;6.88;4.10;;;;;;;27.41;44.33;102221.13;4922803;29;20039;-85
2022/08/11 06:21:37;;;;;;;8.65;5.30;;;;;;;27.75;42.90;102220.84;4906528;29;20027;-83
2022/08/11 06:24:04;;;;;;;6.53;4.63;;;;;;;28.04;42.54;102221.38;4921396;29;20059;-83
2022/08/11 06:26:30;;;;;;;14.68;5.72;;;;;;;28.35;41.49;102218.81;4920998;29;20032;-82
2022/08/11 06:28:57;;;;;;;8.18;4.95;;;;;;;28.69;41.20;102218.44;4923152;29;20024;-84
2022/08/11 06:31:23;;;;;;;8.52;4.50;;;;;;;29.06;40.47;102224.69;4923629;29;20031;-82
2022/08/11 06:34:12;;;;;;;7.47;5.10;;;;;;;29.14;39.54;102228.03;4920273;29;20043;-80
2022/08/11 06:36:44;;;;;;;10.65;5.57;;;;;;;28.96;39.16;102218.25;4918517;29;20027;-83
2022/08/11 06:39:47;;;;;;;16.60;5.45;;;;;;;29.22;38.77;102222.78;4906229;29;20031;-81
2022/08/11 06:42:25;;;;;;;14.90;6.18;;;;;;;29.12;38.79;102227.47;4924239;29;20040;-82
2022/08/11 06:45:03;;;;;;;10.18;5.53;;;;;;;29.26;38.50;102217.53;4907497;29;20031;-83
2022/08/11 06:47:29;;;;;;;8.60;5.07;;;;;;;29.23;38.77;102220.88;4923004;29;20034;-84
2022/08/11 06:52:41;;;;;;;18.50;6.25;;;;;;;29.91;36.63;102228.94;4923903;29;20478;-84
2022/08/11 06:55:10;;;;;;;;;;;;;;;29.77;37.05;102228.69;4921483;29;20035;-84
2022/08/11 07:00:27;;;;;;;14.80;5.97;;;;;;;30.26;36.92;102225.31;4929003;29;20079;-83
2022/08/11 07:03:02;;;;;;;11.02;6.57;;;;;;;30.59;35.32;102228.53;4924716;29;20032;-80
2022/08/11 07:05:36;;;;;;;12.02;6.45;;;;;;;30.31;36.30;102227.25;4943372;29;20028;-79
2022/08/11 07:16:50;;;;;;;18.67;7.00;;;;;;;30.98;35.77;102219.50;4940929;29;20459;-81
2022/08/11 07:30:46;;;;;;;13.95;6.53;;;;;;;32.27;33.46;102231.28;4928551;29;20099;-81
2022/08/11 07:33:12;;;;;;;18.55;7.13;;;;;;;32.75;32.92;102231.28;4922346;29;20048;-81
2022/08/11 07:35:59;;;;;;;11.90;7.10;;;;;;;32.57;33.07;102230.97;4923324;29;20035;-83
2022/08/11 07:38:42;;;;;;;16.15;6.88;;;;;;;32.82;32.19;102231.75;4923879;29;20039;-84
2022/08/11 07:41:12;;;;;;;16.00;7.07;;;;;;;32.85;32.45;102238.69;4921581;29;20159;-83
2022/08/11 07:43:42;;;;;;;19.63;7.70;;;;;;;32.87;32.47;102236.44;4920790;29;20035;-81
2022/08/11 07:54:22;;;;;;;25.30;7.05;;;;;;;32.99;31.68;102228.44;4925856;29;20091;-82
2022/08/11 07:56:47;;;;;;;27.57;7.03;;;;;;;33.88;30.15;102230.41;4927588;29;20051;-83
2022/08/11 08:18:24;;;;;;;21.25;6.78;;;;;;;36.10;26.31;102230.81;4920973;29;20046;-82
2022/08/11 08:20:50;;;;;;;13.02;5.93;;;;;;;36.25;26.14;102230.38;4922964;29;20036;-82
2022/08/11 08:23:34;;;;;;;12.93;6.38;;;;;;;36.66;26.12;102232.03;4923272;29;20051;-83
2022/08/11 08:26:03;;;;;;;23.90;7.35;;;;;;;36.63;25.93;102232.69;4905233;29;20482;-81
2022/08/11 08:28:28;;;;;;;16.70;6.75;;;;;;;36.96;25.30;102227.44;4922522;29;20032;-81
2022/08/11 08:30:55;;;;;;;36.00;7.50;;;;;;;36.97;24.61;102222.66;4922137;29;20043;-81
2022/08/11 08:33:24;;;;;;;18.50;6.40;;;;;;;37.04;24.97;102218.25;4928810;29;20058;-79
2022/08/11 08:36:09;;;;;;;16.15;6.28;;;;;;;37.07;24.34;102226.00;4909577;29;20042;-80
2022/08/11 08:38:48;;;;;;;16.15;7.03;;;;;;;36.31;25.50;102229.13;4926041;29;20111;-78
2022/08/11 08:41:17;;;;;;;14.98;6.30;;;;;;;36.43;25.55;102220.88;4925266;29;20032;-82
2022/08/11 08:43:44;;;;;;;13.20;6.90;;;;;;;35.90;26.09;102229.38;4928135;29;20039;-82
2022/08/11 08:46:11;;;;;;;21.33;5.95;;;;;;;36.31;25.63;102228.25;4924905;29;20751;-82
2022/08/11 08:48:36;;;;;;;;;;;;;;;36.45;25.83;102227.00;4924508;29;20031;-82
2022/08/11 08:53:50;;;;;;;12.50;6.03;;;;;;;36.65;24.44;102228.41;4925703;29;19922;-80
2022/08/11 08:56:17;;;;;;;19.95;6.13;;;;;;;36.76;25.43;102223.31;4908444;29;20031;-81
2022/08/11 08:58:45;;;;;;;14.90;6.38;;;;;;;36.61;25.31;102226.59;4923836;29;20058;-80
2022/08/11 09:01:13;;;;;;;15.07;5.53;;;;;;;36.94;24.16;102220.53;4921926;29;20034;-80
2022/08/11 09:03:39;;;;;;;16.92;5.80;;;;;;;36.49;25.04;102221.56;4907138;29;20047;-80
2022/08/11 09:06:04;;;;;;;;;;;;;;;36.19;25.72;102220.47;4922311;29;20027;-81
2022/08/11 09:08:30;;;;;;;;;;;;;;;36.18;24.66;102213.22;4923436;29;19925;-80
2022/08/11 09:13:43;;;;;;;14.82;5.93;;;;;;;36.47;25.17;102215.47;4923453;29;20046;-79
2022/08/11 09:16:08;;;;;;;15.55;5.20;;;;;;;36.89;24.84;102216.72;4905237;29;20052;-80
2022/08/11 09:18:34;;;;;;;23.40;6.28;;;;;;;36.90;25.42;102207.16;4920701;29;20039;-82
2022/08/11 09:21:01;;;;;;;13.67;5.77;;;;;;;37.48;24.66;102212.59;4917730;29;20047;-82
2022/08/11 09:28:57;;;;;;;17.60;6.07;;;;;;;37.26;23.59;102203.22;4927553;29;20046;-82
2022/08/11 09:31:22;;;;;;;17.02;5.55;;;;;;;37.32;24.23;102198.25;4899290;29;20160;-83
2022/08/11 09:33:51;;;;;;;14.53;5.67;;;;;;;37.70;22.83;102192.75;4923315;29;20079;-83
2022/08/11 09:41:46;;;;;;;18.67;5.03;;;;;;;37.98;22.74;102200.78;4922737;29;20075;-78
2022/08/11 09:46:58;;;;;;;14.18;5.40;;;;;;;38.09;22.57;102193.63;4920126;29;20075;-80
2022/08/11 09:49:24;;;;;;;17.95;5.07;;;;;;;38.44;22.39;102190.66;4921446;29;20503;-81
2022/08/11 09:51:50;;;;;;;10.13;5.57;;;;;;;38.33;21.06;102192.19;4922167;29;20035;-81
2022/08/11 09:54:17;;;;;;;25.20;5.20;;;;;;;38.22;20.85;102189.75;4922695;29;20032;-83
2022/08/11 09:59:28;;;;;;;13.10;4.88;;;;;;;38.58;19.45;102185.63;4926843;29;20051;-82
2022/08/11 10:01:58;;;;;;;23.20;5.50;;;;;;;38.46;20.22;102176.25;4940247;29;20491;-80
2022/08/11 10:04:36;;;;;;;11.80;5.30;;;;;;;38.56;20.05;102185.13;4925824;29;20363;-82
2022/08/11 10:07:09;;;;;;;19.77;5.25;;;;;;;38.51;20.22;102184.50;4922410;29;20039;-79
2022/08/11 10:09:47;;;;;;;21.80;6.07;;;;;;;38.22;19.98;102184.13;4924000;29;20160;-80
2022/08/11 10:12:32;;;;;;;13.68;5.15;;;;;;;37.62;21.46;102175.94;4941500;29;20125;-84
2022/08/11 10:20:41;;;;;;;16.83;5.80;;;;;;;37.74;20.33;102162.84;4909504;29;20173;-84
2022/08/11 10:28:35;;;;;;;13.27;5.15;;;;;;;37.61;18.93;102165.84;4926266;29;20172;-81
2022/08/11 10:33:59;;;;;;;;;;;;;;;37.71;20.04;102163.50;4923422;29;20138;-83
2022/08/11 10:36:26;;;;;;;19.52;5.28;;;;;;;37.70;19.96;102144.97;4924553;29;19941;-82
2022/08/11 10:38:52;;;;;;;14.70;5.13;;;;;;;37.66;19.55;102151.63;4939965;29;20028;-80
2022/08/11 10:44:04;;;;;;;15.95;4.90;;;;;;;37.52;19.26;102149.00;4914380;29;20051;-80
2022/08/11 10:49:15;;;;;;;16.05;4.80;;;;;;;37.90;18.74;102143.44;4925628;29;20129;-83
2022/08/11 10:59:53;;;;;;;17.63;5.03;;;;;;;38.39;17.93;102157.06;4931275;29;20078;-84
2022/08/11 11:02:19;;;;;;;10.45;4.40;;;;;;;38.18;17.54;102142.97;4924883;29;20039;-81
2022/08/11 11:05:02;;;;;;;10.93;4.78;;;;;;;37.92;18.31;102145.91;4928131;29;20042;-83
2022/08/11 11:07:37;;;;;;;16.05;4.55;;;;;;;38.64;17.37;102142.03;4920155;29;20028;-80
2022/08/11 11:10:07;;;;;;;7.93;4.32;;;;;;;38.79;16.84;102142.59;4938014;29;20036;-79
2022/08/11 11:18:11;;;;;;;10.05;4.07;;;;;;;39.11;16.98;102140.19;4923815;29;20098;-81
2022/08/11 11:20:45;;;;;;;9.23;4.07;;;;;;;39.26;16.68;102133.88;4920600;29;20031;-80
2022/08/11 11:23:21;;;;;;;16.13;4.18;;;;;;;38.90;17.70;102138.22;4920621;29;20027;-82
2022/08/11 11:26:05;;;;;;;14.32;3.85;;;;;;;39.21;16.80;102134.13;4938182;29;20031;-82
2022/08/11 11:28:54;;;;;;;9.68;3.60;;;;;;;39.23;15.95;102145.84;4937382;29;20036;-83
2022/08/11 11:31:41;;;;;;;10.40;3.78;;;;;;;38.44;16.20;102140.03;4924388;29;20027;-84
2022/08/11 11:34:44;;;;;;;8.68;4.05;;;;;;;38.53;16.98;102131.53;4941547;29;20456;-83
2022/08/11 11:37:12;;;;;;;11.02;4.15;;;;;;;39.00;16.37;102120.91;4939874;29;20031;-82
2022/08/11 11:39:37;;;;;;;7.22;3.60;;;;;;;39.63;15.45;102134.81;4939098;29;20028;-81
2022/08/11 11:42:05;;;;;;;14.77;4.40;;;;;;;39.05;16.24;102134.75;4902971;29;20055;-86
2022/08/11 11:44:31;;;;;;;11.30;3.75;;;;;;;38.53;16.21;102123.94;4922800;29;20090;-79
2022/08/11 11:46:57;;;;;;;;;;;;;;;38.81;16.17;102126.16;4923210;29;20038;-82
2022/08/11 11:49:24;;;;;;;13.15;3.95;;;;;;;38.79;16.17;102123.72;4923410;29;19911;-83
2022/08/11 11:51:53;;;;;;;9.52;4.15;;;;;;;37.85;17.29;102123.13;4907924;29;20048;-82
2022/08/11 11:54:25;;;;;;;10.18;3.90;;;;;;;37.55;17.38;102123.91;4939006;29;20055;-81
2022/08/11 11:56:52;;;;;;;12.20;4.25;;;;;;;37.68;17.57;102115.56;4920224;29;20043;-83
2022/08/11 12:02:03;;;;;;;10.57;3.78;;;;;;;37.86;17.96;102113.53;4924092;29;20522;-84
2022/08/11 12:04:29;;;;;;;6.23;3.57;;;;;;;38.19;17.72;102103.28;4922180;29;20028;-81
2022/08/11 12:08:08;;;;;;;6.25;3.83;;;;;;;38.34;17.67;102106.66;4908988;29;20062;-80
2022/08/11 12:09:40;;;;;;;;;;;;;;;37.70;17.95;102107.66;4926771;29;20492;-82
2022/08/11 12:14:52;;;;;;;12.82;4.55;;;;;;;37.71;18.81;102107.31;4928401;29;19942;-82
2022/08/11 12:17:18;;;;;;;10.18;4.30;;;;;;;37.58;19.18;102099.94;4904549;29;20032;-82
2022/08/11 12:19:43;;;;;;;17.02;5.15;;;;;;;37.12;19.71;102101.50;4924886;29;20348;-83
2022/08/11 12:27:39;;;;;;;17.42;5.05;;;;;;;37.83;18.24;102098.16;4950489;29;20074;-84
2022/08/11 12:30:05;;;;;;;11.70;4.35;;;;;;;37.15;18.80;102092.41;4928122;29;20023;-82
2022/08/11 12:32:32;;;;;;;21.75;4.38;;;;;;;36.19;20.25;102091.56;4928611;29;20032;-84
2022/08/11 12:34:57;;;;;;;12.90;4.30;;;;;;;36.76;20.31;102088.66;4925075;29;20134;-81
2022/08/11 12:37:30;;;;;;;11.73;4.88;;;;;;;36.88;19.66;102080.38;4941329;29;20142;-83
2022/08/11 12:45:28;;;;;;;11.57;4.78;;;;;;;36.99;20.46;102075.25;4929485;29;20106;-84
2022/08/11 12:54:05;;;;;;;12.85;4.47;;;;;;;38.22;19.97;102066.03;4927797;29;20479;-82
2022/08/11 13:04:57;;;;;;;14.60;4.95;;;;;;;37.35;19.88;102051.59;4925766;29;20055;-82
2022/08/11 13:07:24;;;;;;;17.80;5.10;;;;;;;37.26;20.86;102051.63;4918374;29;20087;-78
2022/08/11 13:09:50;;;;;;;16.30;4.93;;;;;;;37.19;20.35;102056.09;4931369;29;20040;-81
2022/08/11 13:15:00;;;;;;;15.25;5.05;;;;;;;36.44;20.99;102043.09;4939947;29;20046;-80
2022/08/11 13:17:28;;;;;;;15.35;4.95;;;;;;;36.16;20.95;102036.16;4938641;29;20031;-82
2022/08/11 13:19:56;;;;;;;9.25;4.40;;;;;;;36.52;21.91;102043.41;4941891;29;20155;-77
2022/08/11 13:22:23;;;;;;;14.73;4.63;;;;;;;36.92;20.97;102042.09;4927687;29;20032;-79
2022/08/11 13:24:51;;;;;;;14.05;4.97;;;;;;;36.52;21.35;102037.81;4929067;29;20321;-77
2022/08/11 13:27:17;;;;;;;14.60;5.30;;;;;;;36.59;21.90;102035.38;4916420;29;20055;-77
2022/08/11 13:29:45;;;;;;;12.98;4.65;;;;;;;36.59;21.73;102052.19;4932771;29;20103;-78
2022/08/11 13:32:11;;;;;;;10.38;4.55;;;;;;;36.40;21.61;102041.28;4923829;29;20038;-81
2022/08/11 13:34:41;;;;;;;10.00;4.85;;;;;;;36.44;21.79;102042.25;4915816;29;20052;-83
2022/08/11 13:37:09;;;;;;;18.98;5.50;;;;;;;36.35;21.14;102050.69;4917749;29;20024;-82
2022/08/11 13:39:35;;;;;;;10.48;4.63;;;;;;;36.62;21.24;102026.28;4924463;29;20091;-81
2022/08/11 13:42:01;;;;;;;9.18;4.25;;;;;;;36.85;20.81;102035.34;4925332;29;20023;-82
2022/08/11 13:44:28;;;;;;;15.70;5.50;;;;;;;36.73;20.89;102036.00;4922530;29;20055;-83
2022/08/11 13:47:02;;;;;;;10.98;4.70;;;;;;;36.79;20.51;102037.50;4912092;29;20137;-76
2022/08/11 13:49:34;;;;;;;22.63;4.25;;;;;;;36.41;20.28;102026.91;4928814;29;20100;-79
2022/08/11 13:52:00;;;;;;;14.25;4.75;;;;;;;36.11;20.84;102023.13;4934923;29;20059;-82
2022/08/11 13:54:30;;;;;;;7.88;4.60;;;;;;;36.16;21.17;102024.94;4925193;29;20036;-83
2022/08/11 13:57:00;;;;;;;9.85;4.43;;;;;;;36.08;21.66;102031.38;4932090;29;20028;-80
2022/08/11 13:59:26;;;;;;;13.43;4.53;;;;;;;35.78;21.69;102017.91;4924972;29;20024;-84
2022/08/11 14:01:55;;;;;;;11.45;4.50;;;;;;;35.88;21.02;102019.59;4926768;29;20035;-80
2022/08/11 14:04:38;;;;;;;15.82;4.70;;;;;;;35.40;21.89;102018.41;4923850;29;20031;-80
2022/08/11 14:07:06;;;;;;;16.52;4.68;;;;;;;34.92;22.56;102021.09;4935181;29;20052;-79
2022/08/11 14:09:36;;;;;;;11.95;4.93;;;;;;;34.67;22.91;102015.00;4921815;29;20023;-82
2022/08/11 14:14:58;;;;;;;20.60;5.32;;;;;;;35.31;22.62;102016.72;4924839;29;20494;-85
2022/08/11 14:17:23;;;;;;;8.95;4.68;;;;;;;35.63;22.17;101997.94;4922195;29;20071;-83
2022/08/11 14:19:51;;;;;;;10.50;4.47;;;;;;;35.74;21.44;102002.09;4921258;29;20055;-80
2022/08/11 14:22:17;;;;;;;11.90;4.70;;;;;;;36.08;21.62;101997.75;4916793;29;20043;-81
2022/08/11 14:24:48;;;;;;;14.00;5.22;;;;;;;36.44;21.44;101992.63;4930895;29;20517;-82
2022/08/11 14:27:14;;;;;;;17.02;5.18;;;;;;;36.53;21.80;101994.59;4904709;29;20036;-83
2022/08/11 14:29:41;;;;;;;20.23;4.72;;;;;;;36.32;21.36;101986.88;4913027;29;20103;-82
2022/08/11 14:32:08;;;;;;;12.43;4.80;;;;;;;36.25;21.25;101994.94;4921688;29;20028;-81
2022/08/11 14:34:35;;;;;;;23.55;4.78;;;;;;;36.18;21.51;101978.63;4922157;29;20399;-80
2022/08/11 14:37:11;;;;;;;19.77;4.90;;;;;;;35.98;21.75;101990.44;4922392;29;20042;-81
2022/08/11 14:39:45;;;;;;;11.57;4.28;;;;;;;35.51;22.13;101982.53;4925551;29;20147;-80
2022/08/11 14:47:37;;;;;;;19.70;5.28;;;;;;;33.77;24.90;101975.66;4904795;29;20040;-80
2022/08/11 14:50:03;;;;;;;9.85;5.43;;;;;;;33.62;24.79;101967.63;4902378;29;20039;-81
2022/08/11 14:52:32;;;;;;;9.90;4.70;;;;;;;33.69;25.22;101973.59;4916115;29;20032;-80
2022/08/11 14:57:41;;;;;;;13.75;5.40;;;;;;;33.90;24.89;101978.75;4926279;29;20043;-81
2022/08/11 15:00:11;;;;;;;11.33;5.03;;;;;;;33.94;24.95;101965.81;4938280;29;20036;-82
2022/08/11 15:05:23;;;;;;;9.57;4.77;;;;;;;33.88;24.22;101965.91;4927907;29;20137;-81
2022/08/11 15:07:50;;;;;;;10.25;4.75;;;;;;;33.65;24.57;101965.03;4942503;29;20066;-81
2022/08/11 15:10:16;;;;;;;16.08;5.53;;;;;;;33.55;24.96;101961.66;4922592;29;20036;-81
2022/08/11 15:12:41;;;;;;;8.67;4.83;;;;;;;33.53;24.84;101958.31;4924891;29;20047;-80
2022/08/11 15:18:01;;;;;;;16.30;5.45;;;;;;;33.63;24.22;101956.16;4923528;29;20061;-81
2022/08/11 15:37:24;;;;;;;14.98;5.10;;;;;;;33.35;24.32;101954.47;4926320;29;20123;-81
2022/08/11 15:37:26;;;;;;;14.23;4.97;;;;;;;33.42;24.45;101940.94;4923936;29;20156;-81
2022/08/11 15:46:20;;;;;;;14.40;5.10;;;;;;;32.99;24.50;101930.03;4893562;29;20037;-82
2022/08/11 15:48:57;;;;;;;16.25;5.18;;;;;;;32.90;24.60;101932.69;4883101;29;20082;-80
2022/08/11 15:51:35;;;;;;;13.63;4.70;;;;;;;32.82;24.57;101939.00;4909105;29;20067;-79
2022/08/11 15:54:14;;;;;;;14.05;5.00;;;;;;;32.62;24.85;101930.97;4922523;29;20069;-82
2022/08/11 15:56:47;;;;;;;11.20;4.97;;;;;;;32.47;24.79;101930.13;4922564;29;20027;-78
2022/08/11 16:04:44;;;;;;;12.20;4.85;;;;;;;31.83;25.70;101918.47;4928181;29;20105;-81
2022/08/11 16:07:13;;;;;;;12.82;4.65;;;;;;;31.73;25.29;101928.94;4922918;29;20024;-78
2022/08/11 16:10:17;;;;;;;10.20;4.63;;;;;;;31.64;25.65;101926.81;4943122;29;20458;-81
2022/08/11 16:18:21;;;;;;;16.83;4.32;;;;;;;31.40;26.34;101920.47;4926761;29;20459;-82
2022/08/11 16:20:50;;;;;;;11.60;4.38;;;;;;;31.26;27.03;101909.19;4920912;29;20067;-80
2022/08/11 16:23:17;;;;;;;12.02;4.22;;;;;;;31.27;27.16;101913.63;4925046;29;20535;-81
2022/08/11 16:25:43;;;;;;;17.77;4.63;;;;;;;31.24;26.83;101909.47;4920778;29;20036;-81
2022/08/11 16:28:10;;;;;;;18.67;4.63;;;;;;;31.25;27.30;101907.53;4928803;29;20452;-81